EST,Max TemperatureF,Mean TemperatureF,Min TemperatureF,Max Dew PointF,MeanDew PointF,Min DewpointF,Max Humidity, Mean Humidity, Min Humidity, Max Sea Level PressureIn, Mean Sea Level PressureIn, Min Sea Level PressureIn, Max VisibilityMiles, Mean VisibilityMiles, Min VisibilityMiles, Max Wind SpeedMPH, Mean Wind SpeedMPH, Max Gust SpeedMPH,PrecipitationIn, CloudCover, Events, WindDirDegrees
2012-11-1,,,,,,,,,,29.61,29.59,29.57,,,,,,,0.00,,,-1
2012-11-2,,,,,,,,,,29.73,29.66,29.63,,,,,,,0.00,,,-1
2012-11-3,,,,,,,,,,29.90,29.87,29.85,,,,,,,0.00,,,-1
2012-11-4,,,,,,,,,,29.99,29.97,29.94,,,,,,,0.00,,,-1
2012-11-5,,,,,,,,,,30.18,30.06,30.00,,,,,,,0.00,,,-1
2012-11-6,44,36,28,24,21,18,82,56,38,30.23,30.17,30.08,10,10,10,6,3,,0.00,0,,3
2012-11-7,39,36,33,34,29,16,100,81,42,30.05,29.88,29.80,10,5,1,16,10,28,0.24,7,Rain-Snow,358
2012-11-8,48,42,36,27,21,16,70,46,28,29.95,29.83,29.77,10,10,10,17,10,28,0.09,3,,335
2012-11-9,55,44,33,31,27,22,92,56,28,30.22,30.09,29.96,10,10,10,16,9,26,0.00,0,,318
2012-11-10,55,42,28,40,35,28,97,79,49,30.42,30.32,30.22,10,10,7,5,0,,0.00,3,,150
2012-11-11,66,50,34,48,41,33,97,84,48,30.49,30.44,30.41,10,7,4,4,0,,0.00,2,,317
2012-11-12,69,51,33,57,48,32,100,89,57,30.46,30.33,30.16,10,7,0,10,1,16,0.01,5,Fog-Snow,160
2012-11-13,62,47,30,58,41,28,100,80,55,30.45,30.28,30.12,10,10,5,13,5,18,0.13,6,Rain,328
2012-11-14,48,37,26,28,25,22,96,71,36,30.53,30.48,30.45,10,10,8,9,2,18,0.01,0,,4
2012-11-15,48,37,26,30,26,23,92,71,37,30.45,30.38,30.30,10,10,10,8,2,,0.00,0,,352
2012-11-16,50,38,26,29,27,23,92,72,36,30.45,30.34,30.30,10,10,10,7,1,,0.00,0,,338
2012-11-17,54,38,23,32,27,21,92,73,40,30.63,30.56,30.45,10,10,10,10,2,20,0.00,0,,11
2012-11-18,51,38,25,34,28,23,96,76,46,30.66,30.61,30.55,10,10,9,8,4,,0.01,0,,355
2012-11-19,51,40,28,36,33,26,96,73,54,30.54,30.38,30.24,10,10,6,9,4,17,0.00,3,,16
2012-11-20,52,40,28,33,30,26,96,75,43,30.23,30.16,30.11,10,10,9,7,2,,0.00,0,,356
2012-11-21,55,41,27,34,28,24,96,71,30,30.24,30.19,30.14,10,10,10,8,2,,0.00,0,,350
2012-11-22,57,41,25,39,31,23,96,78,47,30.27,30.21,30.15,10,10,10,5,1,,0.01,0,,351
2012-11-23,57,40,24,43,34,23,100,83,47,30.12,29.93,29.69,10,7,0,7,1,,0.01,4,Fog-Rain,193
2012-11-24,48,42,36,32,23,19,60,52,43,29.87,29.79,29.70,10,10,10,15,9,28,0.00,5,,289
2012-11-25,39,32,26,23,20,15,84,57,44,29.97,29.92,29.87,10,10,10,9,5,21,0.00,4,,286
2012-11-26,48,38,27,25,22,19,89,63,31,30.26,30.11,29.98,10,10,8,10,2,20,0.00,1,,295
2012-11-27,35,32,28,34,32,23,100,93,75,30.28,30.23,30.19,10,4,0,5,1,,0.37,8,Fog-Rain-Snow,334
2012-11-28,39,32,23,33,26,20,100,82,53,30.30,30.23,30.19,10,7,0,9,2,17,0.09,3,Fog,312
2012-11-29,44,32,19,30,23,17,92,78,47,30.38,30.32,30.29,10,8,5,8,1,,0.00,0,,265
2012-11-30,46,34,21,32,27,19,92,76,48,30.43,30.38,30.32,10,8,5,5,1,,0.00,4,,27